Terminal Aerodrome Forecast
Issued by NWS

Home | Current Version | Previous Version | Text Only | Print | Product List | Glossary On
Versions: 1 2 3 4 5 6 7 8 9 10 11 12 13 14 15
000
FTUS43 KDLH 020532
TAFBRD
TAF
KBRD 020532Z 0206/0306 18004KT P6SM SCT080 SCT250
     FM020900 20004KT P6SM VCTS SCT040CB BKN090
      TEMPO 0210/0213 -TSRA SCT030 BKN040CB
     FM021400 33007KT P6SM VCSH FEW025 BKN100
     FM021900 34013G21KT P6SM SCT040 SCT100
     FM030100 32009KT P6SM SCT100=

USA.gov is the U.S. government's official web portal to all federal, state and local government web resources and services.